createdAt,value
2022-09-26T00:01:42.610Z,14.59
2022-09-26T00:04:27.909Z,14.53
2022-09-26T00:06:59.091Z,14.47
2022-09-26T00:09:28.381Z,14.37
2022-09-26T00:11:56.251Z,14.32
2022-09-26T00:14:28.045Z,14.31
2022-09-26T00:16:56.192Z,14.37
2022-09-26T00:19:24.633Z,14.41
2022-09-26T00:21:52.469Z,14.41
2022-09-26T00:24:20.625Z,14.42
2022-09-26T00:26:48.418Z,14.38
2022-09-26T00:29:16.735Z,14.32
2022-09-26T00:31:47.564Z,14.14
2022-09-26T00:34:18.484Z,14.11
2022-09-26T00:36:46.383Z,14.05
2022-09-26T00:39:16.346Z,14.06
2022-09-26T00:41:45.423Z,14.10
2022-09-26T00:44:46.320Z,14.09
2022-09-26T00:47:27.154Z,14.11
2022-09-26T00:50:10.712Z,14.11
2022-09-26T00:52:46.866Z,14.11
2022-09-26T00:55:20.279Z,14.08
2022-09-26T00:57:58.963Z,13.99
2022-09-26T01:00:27.400Z,13.98
2022-09-26T01:02:55.450Z,13.90
2022-09-26T01:05:24.567Z,13.93
2022-09-26T01:07:54.709Z,13.86
2022-09-26T01:10:22.898Z,13.90
2022-09-26T01:12:52.441Z,13.77
2022-09-26T01:15:20.863Z,13.75
2022-09-26T01:17:50.259Z,13.79
2022-09-26T01:20:27.210Z,13.68
2022-09-26T01:23:35.221Z,13.73
2022-09-26T01:26:30.503Z,13.73
2022-09-26T01:29:28.612Z,13.72
2022-09-26T01:32:29.562Z,13.76
2022-09-26T01:35:00.032Z,13.73
2022-09-26T01:37:48.844Z,13.77
2022-09-26T01:40:47.246Z,13.81
2022-09-26T01:43:30.833Z,13.78
2022-09-26T01:46:58.181Z,13.86
2022-09-26T01:50:00.880Z,13.92
2022-09-26T01:52:42.969Z,13.90
2022-09-26T01:55:35.957Z,13.90
2022-09-26T01:58:46.126Z,13.93
2022-09-26T02:01:17.021Z,13.98
2022-09-26T02:03:59.459Z,14.01
2022-09-26T02:06:42.589Z,14.05
2022-09-26T02:09:21.881Z,14.12
2022-09-26T02:11:54.135Z,14.11
2022-09-26T02:14:36.560Z,14.09
2022-09-26T02:17:13.217Z,14.09
2022-09-26T02:20:05.347Z,14.05
2022-09-26T02:22:34.940Z,14.06
2022-09-26T02:25:04.484Z,14.05
2022-09-26T02:27:32.916Z,14.06
2022-09-26T02:30:01.007Z,14.08
2022-09-26T02:32:32.589Z,14.12
2022-09-26T02:35:01.340Z,14.13
2022-09-26T02:37:32.391Z,14.17
2022-09-26T02:40:01.184Z,14.17
2022-09-26T02:42:51.880Z,14.16
2022-09-26T02:46:04.348Z,14.17
2022-09-26T02:49:09.539Z,14.12
2022-09-26T02:52:07.785Z,14.16
2022-09-26T02:55:36.699Z,14.16
2022-09-26T02:58:39.539Z,14.17
2022-09-26T03:01:36.180Z,14.15
2022-09-26T03:04:32.564Z,14.15
2022-09-26T03:07:09.615Z,14.17
2022-09-26T03:09:38.758Z,14.12
2022-09-26T03:12:08.026Z,14.16
2022-09-26T03:14:39.194Z,14.12
2022-09-26T03:17:08.772Z,14.15
2022-09-26T03:19:48.362Z,14.20
2022-09-26T03:22:17.071Z,14.21
2022-09-26T03:24:46.122Z,14.17
2022-09-26T03:27:16.389Z,14.17
2022-09-26T03:29:46.083Z,14.18
2022-09-26T03:32:20.101Z,14.13
2022-09-26T03:34:50.268Z,14.16
2022-09-26T03:37:19.008Z,14.16
2022-09-26T03:39:46.919Z,14.17
2022-09-26T03:42:22.994Z,14.18
2022-09-26T03:44:51.994Z,14.14
2022-09-26T03:47:19.737Z,14.12
2022-09-26T03:49:54.701Z,14.09
2022-09-26T03:52:24.981Z,14.07
2022-09-26T03:54:53.492Z,14.05
2022-09-26T03:57:21.740Z,14.04
2022-09-26T03:59:58.226Z,13.98
2022-09-26T04:02:33.528Z,13.95
2022-09-26T04:05:17.480Z,13.90
2022-09-26T04:07:47.192Z,13.90
2022-09-26T04:10:15.091Z,13.82
2022-09-26T04:12:45.549Z,13.81
2022-09-26T04:15:15.273Z,13.79
2022-09-26T04:17:43.320Z,13.80
2022-09-26T04:20:11.429Z,13.82
2022-09-26T04:22:40.936Z,13.81
2022-09-26T04:25:10.220Z,13.79
2022-09-26T04:27:38.926Z,13.78
2022-09-26T04:30:07.514Z,13.73
2022-09-26T04:32:42.624Z,13.71
2022-09-26T04:35:33.021Z,13.71
2022-09-26T04:38:01.123Z,13.68
2022-09-26T04:40:29.501Z,13.69
2022-09-26T04:43:05.081Z,13.69
2022-09-26T04:45:32.862Z,13.67
2022-09-26T04:48:01.368Z,13.64
2022-09-26T04:50:48.062Z,13.66
2022-09-26T04:53:19.362Z,13.62
2022-09-26T04:55:59.653Z,13.64
2022-09-26T04:58:28.364Z,13.63
2022-09-26T05:00:56.596Z,13.62
2022-09-26T05:03:33.226Z,13.59
2022-09-26T05:06:01.589Z,13.56
2022-09-26T05:08:29.352Z,13.52
2022-09-26T05:10:57.718Z,13.52
2022-09-26T05:13:26.992Z,13.52
2022-09-26T05:15:55.915Z,13.51
2022-09-26T05:18:24.595Z,13.51
2022-09-26T05:20:54.211Z,13.51
2022-09-26T05:23:45.010Z,13.53
2022-09-26T05:26:46.288Z,13.51
2022-09-26T05:29:16.162Z,13.55
2022-09-26T05:31:54.805Z,13.52
2022-09-26T05:34:26.155Z,13.52
2022-09-26T05:36:56.169Z,13.53
2022-09-26T05:39:43.392Z,13.54
2022-09-26T05:42:13.791Z,13.53
2022-09-26T05:44:41.636Z,13.55
2022-09-26T05:47:09.917Z,13.55
2022-09-26T05:49:39.730Z,13.59
2022-09-26T05:52:10.178Z,13.61
2022-09-26T05:54:37.969Z,13.59
2022-09-26T05:57:23.337Z,13.63
2022-09-26T05:59:55.899Z,13.62
2022-09-26T06:02:26.263Z,13.62
2022-09-26T06:05:07.860Z,13.66
2022-09-26T06:07:38.424Z,13.63
2022-09-26T06:10:10.833Z,13.64
2022-09-26T06:12:48.790Z,13.65
2022-09-26T06:15:18.640Z,13.63
2022-09-26T06:17:48.254Z,13.61
2022-09-26T06:20:16.607Z,13.62
2022-09-26T06:22:45.057Z,13.59
2022-09-26T06:25:14.379Z,13.62
2022-09-26T06:27:42.708Z,13.69
2022-09-26T06:30:12.033Z,13.75
2022-09-26T06:32:40.964Z,13.83
2022-09-26T06:35:34.632Z,13.90
2022-09-26T06:38:08.727Z,13.90
2022-09-26T06:40:36.947Z,13.95
2022-09-26T06:43:05.460Z,13.99
2022-09-26T06:45:53.342Z,14.09
2022-09-26T06:48:26.128Z,14.15
2022-09-26T06:51:00.589Z,14.19
2022-09-26T06:53:31.946Z,14.25
2022-09-26T06:56:01.431Z,14.31
2022-09-26T06:58:30.945Z,14.37
2022-09-26T07:01:03.019Z,14.36
2022-09-26T07:03:45.730Z,14.42
2022-09-26T07:06:27.137Z,14.52
2022-09-26T07:09:03.175Z,14.55
2022-09-26T07:12:12.991Z,14.63
2022-09-26T07:14:34.582Z,14.69
2022-09-26T07:17:18.332Z,14.76
2022-09-26T07:20:04.623Z,14.82
2022-09-26T07:22:50.578Z,14.90
2022-09-26T07:25:18.506Z,14.95
2022-09-26T07:27:50.903Z,15.04
2022-09-26T07:30:20.224Z,15.11
2022-09-26T07:33:03.986Z,15.18
2022-09-26T07:35:48.925Z,15.22
2022-09-26T07:38:16.788Z,15.29
2022-09-26T07:40:46.208Z,15.36
2022-09-26T07:43:30.605Z,15.41
2022-09-26T07:46:21.018Z,15.41
2022-09-26T07:49:10.355Z,15.44
2022-09-26T07:52:00.322Z,15.49
2022-09-26T07:54:43.651Z,15.54
2022-09-26T07:57:39.757Z,15.56
2022-09-26T08:00:24.266Z,15.51
2022-09-26T08:03:04.936Z,15.48
2022-09-26T08:05:34.969Z,15.49
2022-09-26T08:08:04.976Z,15.51
2022-09-26T08:10:51.666Z,15.55
2022-09-26T08:13:28.982Z,15.59
2022-09-26T08:16:20.700Z,15.58
2022-09-26T08:18:53.404Z,15.64
2022-09-26T08:21:22.411Z,15.61
2022-09-26T08:23:53.652Z,15.60
2022-09-26T08:26:33.026Z,15.56
2022-09-26T08:29:12.642Z,15.52
2022-09-26T08:31:42.653Z,15.49
2022-09-26T08:34:10.592Z,15.45
2022-09-26T08:36:38.462Z,15.44
2022-09-26T08:39:06.317Z,15.45
2022-09-26T08:42:00.527Z,15.47
2022-09-26T08:44:52.953Z,15.52
2022-09-26T08:47:55.792Z,15.58
2022-09-26T08:50:53.744Z,15.60
2022-09-26T08:53:33.270Z,15.65
2022-09-26T08:56:03.840Z,15.64
2022-09-26T08:58:42.946Z,15.65
2022-09-26T09:01:29.071Z,15.68
2022-09-26T09:04:25.216Z,15.66
2022-09-26T09:07:07.490Z,15.62
2022-09-26T09:09:35.296Z,15.75
2022-09-26T09:12:46.985Z,15.84
2022-09-26T09:15:51.263Z,15.88
2022-09-26T09:18:44.459Z,15.93
2022-09-26T09:21:41.630Z,15.91
2022-09-26T09:24:42.175Z,15.97
2022-09-26T09:30:27.295Z,16.07
2022-09-26T09:33:55.701Z,16.14
2022-09-26T09:36:34.602Z,16.36
2022-09-26T09:39:28.102Z,16.50
2022-09-26T09:42:35.060Z,16.65
2022-09-26T09:45:14.399Z,16.73
2022-09-26T09:47:42.324Z,16.76
2022-09-26T09:50:57.203Z,16.84
2022-09-26T09:53:44.825Z,16.99
2022-09-26T09:57:04.120Z,17.05
2022-09-26T10:00:02.299Z,17.20
2022-09-26T10:02:47.177Z,17.07
2022-09-26T10:05:44.393Z,17.26
2022-09-26T10:08:24.897Z,17.38
2022-09-26T10:11:41.628Z,17.55
2022-09-26T10:15:02.375Z,17.62
2022-09-26T10:21:16.320Z,17.85
2022-09-26T10:23:49.410Z,17.94
2022-09-26T10:26:44.815Z,18.00
2022-09-26T10:29:38.360Z,17.87
2022-09-26T10:32:09.604Z,17.80
2022-09-26T10:34:41.003Z,17.73
2022-09-26T10:37:31.006Z,17.74
2022-09-26T10:40:48.522Z,17.66
2022-09-26T10:43:21.597Z,17.76
2022-09-26T10:45:56.133Z,17.98
2022-09-26T10:49:02.224Z,18.00
2022-09-26T10:52:02.913Z,17.93
2022-09-26T10:54:47.646Z,17.99
2022-09-26T10:57:28.300Z,18.00
2022-09-26T11:00:00.499Z,17.89
2022-09-26T11:02:29.603Z,17.72
2022-09-26T11:05:20.858Z,17.74
2022-09-26T11:08:14.334Z,17.70
2022-09-26T11:11:04.259Z,17.73
2022-09-26T11:14:07.445Z,17.85
2022-09-26T11:16:55.113Z,17.86
2022-09-26T11:19:44.625Z,17.99
2022-09-26T11:22:28.804Z,18.01
2022-09-26T11:25:28.186Z,17.73
2022-09-26T11:28:08.837Z,17.51
2022-09-26T11:31:00.314Z,17.66
2022-09-26T11:33:30.426Z,17.69
2022-09-26T11:36:54.304Z,17.78
2022-09-26T11:39:27.971Z,17.85
2022-09-26T11:42:46.331Z,17.81
2022-09-26T11:45:52.674Z,17.90
2022-09-26T11:49:25.590Z,17.97
2022-09-26T11:52:24.564Z,17.98
2022-09-26T11:55:17.892Z,17.79
2022-09-26T11:57:54.721Z,17.82
2022-09-26T12:00:46.658Z,17.83
2022-09-26T12:03:37.222Z,17.83
2022-09-26T12:06:18.159Z,17.94
2022-09-26T12:09:22.160Z,17.97
2022-09-26T12:12:06.032Z,18.00
2022-09-26T12:14:57.945Z,18.01
2022-09-26T12:18:13.224Z,18.02
2022-09-26T12:21:24.625Z,18.15
2022-09-26T12:24:22.543Z,18.28
2022-09-26T12:27:06.732Z,18.38
2022-09-26T12:30:02.476Z,18.49
2022-09-26T12:33:36.053Z,18.61
2022-09-26T12:36:31.583Z,18.63
2022-09-26T12:39:39.180Z,18.61
2022-09-26T12:43:04.444Z,18.59
2022-09-26T12:46:06.241Z,18.65
2022-09-26T12:48:45.990Z,18.76
2022-09-26T12:51:43.100Z,18.71
2022-09-26T12:54:29.480Z,18.64
2022-09-26T12:57:42.357Z,18.68
2022-09-26T13:00:20.841Z,18.66
2022-09-26T13:03:12.827Z,18.61
2022-09-26T13:06:08.864Z,18.70
2022-09-26T13:08:45.382Z,18.71
2022-09-26T13:11:33.988Z,18.71
2022-09-26T13:14:27.493Z,18.69
2022-09-26T13:17:28.949Z,18.81
2022-09-26T13:20:22.710Z,18.74
2022-09-26T13:23:07.852Z,18.63
2022-09-26T13:25:49.369Z,18.58
2022-09-26T13:28:34.067Z,18.53
2022-09-26T13:31:19.058Z,18.72
2022-09-26T13:34:09.390Z,18.85
2022-09-26T13:36:38.806Z,18.99
2022-09-26T13:39:15.293Z,19.01
2022-09-26T13:41:59.792Z,18.95
2022-09-26T13:44:46.812Z,18.88
2022-09-26T13:47:49.566Z,18.88
2022-09-26T13:50:47.329Z,18.97
2022-09-26T13:53:40.363Z,19.03
2022-09-26T13:56:44.143Z,18.98
2022-09-26T13:59:15.664Z,18.90
2022-09-26T14:02:24.709Z,18.81
2022-09-26T14:05:02.853Z,18.71
2022-09-26T14:08:00.984Z,18.75
2022-09-26T14:10:37.510Z,18.63
2022-09-26T14:13:37.102Z,18.65
2022-09-26T14:16:28.819Z,18.70
2022-09-26T14:19:29.177Z,18.69
2022-09-26T14:22:26.305Z,18.74
2022-09-26T14:24:57.199Z,18.60
2022-09-26T14:27:36.216Z,18.68
2022-09-26T14:30:30.500Z,18.72
2022-09-26T14:33:06.974Z,18.69
2022-09-26T14:35:38.593Z,18.54
2022-09-26T14:38:20.522Z,18.54
2022-09-26T14:40:58.202Z,18.56
2022-09-26T14:43:30.316Z,18.57
2022-09-26T14:46:23.438Z,18.49
2022-09-26T14:49:05.439Z,18.39
2022-09-26T14:51:41.244Z,18.37
2022-09-26T14:54:26.725Z,18.33
2022-09-26T14:57:05.518Z,18.30
2022-09-26T14:59:36.185Z,18.25
2022-09-26T15:02:38.357Z,18.24
2022-09-26T15:05:22.800Z,18.28
2022-09-26T15:07:53.947Z,18.24
2022-09-26T15:10:26.454Z,18.24
2022-09-26T15:13:17.470Z,18.21
2022-09-26T15:15:57.704Z,18.22
2022-09-26T15:18:34.882Z,18.17
2022-09-26T15:21:32.988Z,18.12
2022-09-26T15:24:04.928Z,18.06
2022-09-26T15:26:37.159Z,18.10
2022-09-26T15:29:06.963Z,18.01
2022-09-26T15:31:46.130Z,18.02
2022-09-26T15:34:43.574Z,17.99
2022-09-26T15:37:22.069Z,17.96
2022-09-26T15:39:50.992Z,17.94
2022-09-26T15:42:40.995Z,17.79
2022-09-26T15:45:27.864Z,17.76
2022-09-26T15:48:00.465Z,17.68
2022-09-26T15:50:43.531Z,17.66
2022-09-26T15:53:36.660Z,17.70
2022-09-26T15:56:21.297Z,17.68
2022-09-26T15:59:01.173Z,17.70
2022-09-26T16:01:31.265Z,17.67
2022-09-26T16:04:02.926Z,17.59
2022-09-26T16:06:35.869Z,17.45
2022-09-26T16:09:25.707Z,17.47
2022-09-26T16:11:56.725Z,17.48
2022-09-26T16:14:42.161Z,17.51
2022-09-26T16:17:26.206Z,17.51
2022-09-26T16:19:56.630Z,17.60
2022-09-26T16:22:39.242Z,17.63
2022-09-26T16:25:19.027Z,17.59
2022-09-26T16:27:58.251Z,17.53
2022-09-26T16:30:27.139Z,17.44
2022-09-26T16:33:32.138Z,17.35
2022-09-26T16:36:17.282Z,17.36
2022-09-26T16:39:04.113Z,17.32
2022-09-26T16:44:41.159Z,17.28
2022-09-26T16:47:43.351Z,17.25
2022-09-26T16:50:33.583Z,17.26
2022-09-26T16:53:06.844Z,17.26
2022-09-26T16:55:36.772Z,17.20
2022-09-26T16:58:06.045Z,17.09
2022-09-26T17:00:54.135Z,17.16
2022-09-26T17:03:32.637Z,17.15
2022-09-26T17:06:00.772Z,17.16
2022-09-26T17:08:29.188Z,17.16
2022-09-26T17:11:02.571Z,17.11
2022-09-26T17:13:33.957Z,17.11
2022-09-26T17:16:03.696Z,17.04
2022-09-26T17:18:33.486Z,17.02
2022-09-26T17:21:02.229Z,17.03
2022-09-26T17:23:40.558Z,17.02
2022-09-26T17:26:23.736Z,17.04
2022-09-26T17:28:53.368Z,17.03
2022-09-26T17:31:21.395Z,17.04
2022-09-26T17:33:53.071Z,17.00
2022-09-26T17:36:29.476Z,17.01
2022-09-26T17:38:59.646Z,17.01
2022-09-26T17:41:29.011Z,16.99
2022-09-26T17:44:00.881Z,16.95
2022-09-26T17:46:29.671Z,16.88
2022-09-26T17:48:59.397Z,16.87
2022-09-26T17:51:27.248Z,16.84
2022-09-26T17:53:57.553Z,16.79
2022-09-26T17:56:26.435Z,16.77
2022-09-26T17:58:54.321Z,16.81
2022-09-26T18:01:24.492Z,16.81
2022-09-26T18:03:57.154Z,16.78
2022-09-26T18:06:31.803Z,16.84
2022-09-26T18:09:07.563Z,16.75
2022-09-26T18:11:36.542Z,16.76
2022-09-26T18:14:06.928Z,16.74
2022-09-26T18:16:35.326Z,16.74
2022-09-26T18:19:07.494Z,16.76
2022-09-26T18:21:36.038Z,16.79
2022-09-26T18:24:07.014Z,16.82
2022-09-26T18:26:47.276Z,16.82
2022-09-26T18:29:30.072Z,16.80
2022-09-26T18:31:59.834Z,16.79
2022-09-26T18:34:27.843Z,16.76
2022-09-26T18:37:00.858Z,16.77
2022-09-26T18:39:30.667Z,16.76
2022-09-26T18:42:09.278Z,16.71
2022-09-26T18:44:37.344Z,16.75
2022-09-26T18:47:14.034Z,16.79
2022-09-26T18:49:44.134Z,16.77
2022-09-26T18:52:17.970Z,16.79
2022-09-26T18:55:06.621Z,16.80
2022-09-26T18:57:53.235Z,16.87
2022-09-26T19:00:21.139Z,16.88
2022-09-26T19:02:50.365Z,16.83
2022-09-26T19:05:18.372Z,16.84
2022-09-26T19:07:46.584Z,16.82
2022-09-26T19:10:24.972Z,16.84
2022-09-26T19:12:52.711Z,16.84
2022-09-26T19:15:20.445Z,16.82
2022-09-26T19:17:50.023Z,16.84
2022-09-26T19:20:17.843Z,16.83
2022-09-26T19:22:45.581Z,16.78
2022-09-26T19:25:13.755Z,16.79
2022-09-26T19:27:52.065Z,16.80
2022-09-26T19:30:22.038Z,16.76
2022-09-26T19:32:52.978Z,16.76
2022-09-26T19:35:30.491Z,16.71
2022-09-26T19:38:00.363Z,16.70
2022-09-26T19:40:28.571Z,16.63
2022-09-26T19:42:57.332Z,16.62
2022-09-26T19:45:26.288Z,16.60
2022-09-26T19:47:56.131Z,16.60
2022-09-26T19:50:26.284Z,16.67
2022-09-26T19:52:56.793Z,16.68
2022-09-26T19:55:28.133Z,16.67
2022-09-26T19:58:15.228Z,16.69
2022-09-26T20:00:44.828Z,16.69
2022-09-26T20:03:28.957Z,16.72
2022-09-26T20:05:56.710Z,16.83
2022-09-26T20:08:26.936Z,16.81
2022-09-26T20:10:58.058Z,16.79
2022-09-26T20:13:25.822Z,16.79
2022-09-26T20:15:54.630Z,16.73
2022-09-26T20:18:24.146Z,16.75
2022-09-26T20:20:56.889Z,16.78
2022-09-26T20:23:27.091Z,16.72
2022-09-26T20:25:55.939Z,16.74
2022-09-26T20:28:23.696Z,16.71
2022-09-26T20:30:51.495Z,16.65
2022-09-26T20:33:22.389Z,16.66
2022-09-26T20:36:02.607Z,16.65
2022-09-26T20:38:42.374Z,16.70
2022-09-26T20:41:34.928Z,16.67
2022-09-26T20:44:07.051Z,16.60
2022-09-26T20:46:39.467Z,16.59
2022-09-26T20:49:14.932Z,16.63
2022-09-26T20:51:44.466Z,16.64
2022-09-26T20:54:28.818Z,16.61
2022-09-26T20:56:57.992Z,16.45
2022-09-26T20:59:27.152Z,16.33
2022-09-26T21:01:57.043Z,16.34
2022-09-26T21:04:32.629Z,16.44
2022-09-26T21:07:00.444Z,16.48
2022-09-26T21:09:28.198Z,16.43
2022-09-26T21:11:55.919Z,16.49
2022-09-26T21:14:23.859Z,16.43
2022-09-26T21:16:52.547Z,16.47
2022-09-26T21:19:24.291Z,16.44
2022-09-26T21:22:02.847Z,16.41
2022-09-26T21:24:49.160Z,16.42
2022-09-26T21:27:17.143Z,16.32
2022-09-26T21:29:44.908Z,16.25
2022-09-26T21:32:21.048Z,16.26
2022-09-26T21:34:59.800Z,16.24
2022-09-26T21:37:27.887Z,16.18
2022-09-26T21:39:55.777Z,16.04
2022-09-26T21:42:26.237Z,16.06
2022-09-26T21:45:05.607Z,15.97
2022-09-26T21:47:36.483Z,15.96
2022-09-26T21:50:06.784Z,15.99
2022-09-26T21:53:02.693Z,15.99
2022-09-26T21:55:38.760Z,15.98
2022-09-26T21:58:15.397Z,15.91
2022-09-26T22:00:43.204Z,15.96
2022-09-26T22:03:10.986Z,15.90
2022-09-26T22:05:39.077Z,15.84
2022-09-26T22:08:06.901Z,15.74
2022-09-26T22:10:37.000Z,15.70
2022-09-26T22:13:05.337Z,15.64
2022-09-26T22:15:33.358Z,15.71
2022-09-26T22:18:01.262Z,15.69
2022-09-26T22:20:29.221Z,15.64
2022-09-26T22:22:56.986Z,15.59
2022-09-26T22:25:25.825Z,15.53
2022-09-26T22:27:53.743Z,15.54
2022-09-26T22:30:21.562Z,15.47
2022-09-26T22:32:49.338Z,15.44
2022-09-26T22:35:17.299Z,15.36
2022-09-26T22:37:45.338Z,15.38
2022-09-26T22:40:13.154Z,15.36
2022-09-26T22:42:41.007Z,15.32
2022-09-26T22:45:09.639Z,15.28
2022-09-26T22:47:38.233Z,15.11
2022-09-26T22:50:06.408Z,15.05
2022-09-26T22:52:34.300Z,15.07
2022-09-26T22:55:02.240Z,14.94
2022-09-26T22:57:31.503Z,15.06
2022-09-26T22:59:59.312Z,15.06
2022-09-26T23:02:27.056Z,15.02
2022-09-26T23:04:54.787Z,15.05
2022-09-26T23:07:22.568Z,15.04
2022-09-26T23:09:50.403Z,14.98
2022-09-26T23:12:19.074Z,14.90
2022-09-26T23:14:46.867Z,14.84
2022-09-26T23:17:14.959Z,14.91
2022-09-26T23:19:42.840Z,14.90
2022-09-26T23:22:10.585Z,14.92
2022-09-26T23:24:38.358Z,14.87
2022-09-26T23:27:06.250Z,14.89
2022-09-26T23:29:34.209Z,14.92
2022-09-26T23:32:02.060Z,14.93
2022-09-26T23:34:29.867Z,14.93
2022-09-26T23:36:57.702Z,14.89
2022-09-26T23:39:25.472Z,14.87
2022-09-26T23:41:53.206Z,14.88
2022-09-26T23:44:20.968Z,14.81
2022-09-26T23:46:48.720Z,14.79
2022-09-26T23:49:17.627Z,14.79
2022-09-26T23:51:47.605Z,14.73
2022-09-26T23:54:15.450Z,14.74
2022-09-26T23:56:43.183Z,14.76
2022-09-26T23:59:10.937Z,14.72
